sensor_id;sensor_type;location;lat;lon;timestamp;P1;durP1;ratioP1;P2;durP2;ratioP2
26620;SDS011;14253;44.840;10.444;2023-04-30T00:00:24;31.13;;;22.15;;
26620;SDS011;14253;44.840;10.444;2023-04-30T00:02:50;29.55;;;22.17;;
26620;SDS011;14253;44.840;10.444;2023-04-30T00:05:16;31.92;;;22.80;;
26620;SDS011;14253;44.840;10.444;2023-04-30T00:07:42;30.80;;;23.58;;
26620;SDS011;14253;44.840;10.444;2023-04-30T00:10:08;31.25;;;22.33;;
26620;SDS011;14253;44.840;10.444;2023-04-30T00:12:35;24.85;;;22.05;;
26620;SDS011;14253;44.840;10.444;2023-04-30T00:15:01;30.23;;;22.42;;
26620;SDS011;14253;44.840;10.444;2023-04-30T00:17:27;30.40;;;23.83;;
26620;SDS011;14253;44.840;10.444;2023-04-30T00:19:53;28.10;;;22.45;;
26620;SDS011;14253;44.840;10.444;2023-04-30T00:22:19;34.30;;;23.88;;
26620;SDS011;14253;44.840;10.444;2023-04-30T00:24:45;32.63;;;23.60;;
26620;SDS011;14253;44.840;10.444;2023-04-30T00:27:11;30.80;;;23.35;;
26620;SDS011;14253;44.840;10.444;2023-04-30T00:29:37;30.75;;;23.77;;
26620;SDS011;14253;44.840;10.444;2023-04-30T00:32:04;29.33;;;22.73;;
26620;SDS011;14253;44.840;10.444;2023-04-30T00:34:30;32.30;;;23.20;;
26620;SDS011;14253;44.840;10.444;2023-04-30T00:36:56;27.55;;;23.33;;
26620;SDS011;14253;44.840;10.444;2023-04-30T00:39:22;29.33;;;24.38;;
26620;SDS011;14253;44.840;10.444;2023-04-30T00:41:48;31.80;;;23.55;;
26620;SDS011;14253;44.840;10.444;2023-04-30T00:44:14;35.20;;;25.13;;
26620;SDS011;14253;44.840;10.444;2023-04-30T00:46:40;33.40;;;24.13;;
26620;SDS011;14253;44.840;10.444;2023-04-30T00:49:06;38.88;;;27.15;;
26620;SDS011;14253;44.840;10.444;2023-04-30T00:51:32;29.95;;;25.38;;
26620;SDS011;14253;44.840;10.444;2023-04-30T00:54:00;33.80;;;26.48;;
26620;SDS011;14253;44.840;10.444;2023-04-30T00:56:28;32.50;;;25.88;;
26620;SDS011;14253;44.840;10.444;2023-04-30T00:58:57;33.33;;;26.25;;
26620;SDS011;14253;44.840;10.444;2023-04-30T01:01:24;37.03;;;26.73;;
26620;SDS011;14253;44.840;10.444;2023-04-30T01:03:56;42.42;;;26.95;;
26620;SDS011;14253;44.840;10.444;2023-04-30T01:06:22;35.78;;;26.80;;
26620;SDS011;14253;44.840;10.444;2023-04-30T01:08:51;34.35;;;25.88;;
26620;SDS011;14253;44.840;10.444;2023-04-30T01:17:07;43.65;;;27.58;;
26620;SDS011;14253;44.840;10.444;2023-04-30T01:19:44;40.45;;;26.50;;
26620;SDS011;14253;44.840;10.444;2023-04-30T01:22:34;35.97;;;27.05;;
26620;SDS011;14253;44.840;10.444;2023-04-30T01:28:29;37.25;;;26.83;;
26620;SDS011;14253;44.840;10.444;2023-04-30T01:30:49;39.78;;;28.38;;
26620;SDS011;14253;44.840;10.444;2023-04-30T01:33:16;37.47;;;28.40;;
26620;SDS011;14253;44.840;10.444;2023-04-30T01:43:48;38.17;;;27.80;;
26620;SDS011;14253;44.840;10.444;2023-04-30T01:46:27;37.95;;;28.73;;
26620;SDS011;14253;44.840;10.444;2023-04-30T01:49:09;40.60;;;28.05;;
26620;SDS011;14253;44.840;10.444;2023-04-30T01:51:43;39.58;;;29.15;;
26620;SDS011;14253;44.840;10.444;2023-04-30T01:56:46;40.22;;;28.55;;
26620;SDS011;14253;44.840;10.444;2023-04-30T01:59:29;41.47;;;28.40;;
26620;SDS011;14253;44.840;10.444;2023-04-30T02:01:57;39.20;;;29.50;;
26620;SDS011;14253;44.840;10.444;2023-04-30T02:04:23;35.70;;;28.67;;
26620;SDS011;14253;44.840;10.444;2023-04-30T02:06:49;39.30;;;29.75;;
26620;SDS011;14253;44.840;10.444;2023-04-30T02:09:15;42.50;;;31.33;;
26620;SDS011;14253;44.840;10.444;2023-04-30T02:11:41;44.72;;;29.77;;
26620;SDS011;14253;44.840;10.444;2023-04-30T02:14:07;41.38;;;31.15;;
26620;SDS011;14253;44.840;10.444;2023-04-30T02:16:33;41.80;;;30.85;;
26620;SDS011;14253;44.840;10.444;2023-04-30T02:19:00;40.28;;;30.52;;
26620;SDS011;14253;44.840;10.444;2023-04-30T02:21:26;39.40;;;30.48;;
26620;SDS011;14253;44.840;10.444;2023-04-30T02:23:53;43.50;;;30.77;;
26620;SDS011;14253;44.840;10.444;2023-04-30T02:26:19;38.25;;;30.13;;
26620;SDS011;14253;44.840;10.444;2023-04-30T02:28:45;43.13;;;30.90;;
26620;SDS011;14253;44.840;10.444;2023-04-30T02:31:11;40.63;;;29.95;;
26620;SDS011;14253;44.840;10.444;2023-04-30T02:33:37;40.30;;;30.98;;
26620;SDS011;14253;44.840;10.444;2023-04-30T02:36:03;47.60;;;33.45;;
26620;SDS011;14253;44.840;10.444;2023-04-30T02:38:29;40.63;;;31.90;;
26620;SDS011;14253;44.840;10.444;2023-04-30T02:40:55;44.05;;;31.23;;
26620;SDS011;14253;44.840;10.444;2023-04-30T02:43:21;40.65;;;29.90;;
26620;SDS011;14253;44.840;10.444;2023-04-30T02:45:47;45.22;;;32.30;;
26620;SDS011;14253;44.840;10.444;2023-04-30T02:48:13;39.42;;;30.65;;
26620;SDS011;14253;44.840;10.444;2023-04-30T02:50:39;44.65;;;32.33;;
26620;SDS011;14253;44.840;10.444;2023-04-30T02:53:05;47.55;;;31.20;;
26620;SDS011;14253;44.840;10.444;2023-04-30T02:55:31;39.53;;;31.73;;
26620;SDS011;14253;44.840;10.444;2023-04-30T02:57:57;46.88;;;31.98;;
26620;SDS011;14253;44.840;10.444;2023-04-30T03:00:24;44.60;;;32.63;;
26620;SDS011;14253;44.840;10.444;2023-04-30T03:02:50;52.08;;;33.03;;
26620;SDS011;14253;44.840;10.444;2023-04-30T03:05:16;44.42;;;32.92;;
26620;SDS011;14253;44.840;10.444;2023-04-30T03:07:42;46.63;;;33.20;;
26620;SDS011;14253;44.840;10.444;2023-04-30T03:10:08;48.95;;;32.22;;
26620;SDS011;14253;44.840;10.444;2023-04-30T03:12:35;44.85;;;31.52;;
26620;SDS011;14253;44.840;10.444;2023-04-30T03:15:01;45.05;;;32.78;;
26620;SDS011;14253;44.840;10.444;2023-04-30T03:17:26;40.70;;;31.23;;
26620;SDS011;14253;44.840;10.444;2023-04-30T03:19:52;46.83;;;32.17;;
26620;SDS011;14253;44.840;10.444;2023-04-30T03:22:18;44.67;;;32.60;;
26620;SDS011;14253;44.840;10.444;2023-04-30T03:24:47;45.75;;;33.70;;
26620;SDS011;14253;44.840;10.444;2023-04-30T03:27:13;44.45;;;33.17;;
26620;SDS011;14253;44.840;10.444;2023-04-30T03:29:41;49.05;;;34.05;;
26620;SDS011;14253;44.840;10.444;2023-04-30T03:32:07;47.10;;;31.77;;
26620;SDS011;14253;44.840;10.444;2023-04-30T03:34:33;47.97;;;32.70;;
26620;SDS011;14253;44.840;10.444;2023-04-30T03:36:59;48.05;;;31.65;;
26620;SDS011;14253;44.840;10.444;2023-04-30T03:39:26;51.60;;;33.20;;
26620;SDS011;14253;44.840;10.444;2023-04-30T03:41:52;46.70;;;34.25;;
26620;SDS011;14253;44.840;10.444;2023-04-30T03:44:18;46.78;;;32.03;;
26620;SDS011;14253;44.840;10.444;2023-04-30T03:46:44;44.88;;;33.08;;
26620;SDS011;14253;44.840;10.444;2023-04-30T03:49:10;49.20;;;35.13;;
26620;SDS011;14253;44.840;10.444;2023-04-30T03:51:36;44.95;;;33.60;;
26620;SDS011;14253;44.840;10.444;2023-04-30T03:54:06;48.75;;;33.17;;
26620;SDS011;14253;44.840;10.444;2023-04-30T03:56:32;47.90;;;34.85;;
26620;SDS011;14253;44.840;10.444;2023-04-30T03:58:59;47.92;;;34.35;;
26620;SDS011;14253;44.840;10.444;2023-04-30T04:01:28;47.47;;;32.60;;
26620;SDS011;14253;44.840;10.444;2023-04-30T04:03:55;45.13;;;32.63;;
26620;SDS011;14253;44.840;10.444;2023-04-30T04:06:21;46.20;;;33.13;;
26620;SDS011;14253;44.840;10.444;2023-04-30T04:08:47;48.50;;;33.30;;
26620;SDS011;14253;44.840;10.444;2023-04-30T04:11:13;45.53;;;32.05;;
26620;SDS011;14253;44.840;10.444;2023-04-30T04:13:39;52.85;;;32.28;;
26620;SDS011;14253;44.840;10.444;2023-04-30T04:16:05;47.30;;;34.30;;
26620;SDS011;14253;44.840;10.444;2023-04-30T04:18:33;46.72;;;31.45;;
26620;SDS011;14253;44.840;10.444;2023-04-30T04:20:59;44.22;;;32.55;;
26620;SDS011;14253;44.840;10.444;2023-04-30T04:23:29;52.05;;;33.75;;
26620;SDS011;14253;44.840;10.444;2023-04-30T04:25:55;44.83;;;33.70;;
26620;SDS011;14253;44.840;10.444;2023-04-30T04:28:22;49.00;;;32.70;;
26620;SDS011;14253;44.840;10.444;2023-04-30T04:30:49;48.85;;;34.28;;
26620;SDS011;14253;44.840;10.444;2023-04-30T04:33:15;51.17;;;36.20;;
26620;SDS011;14253;44.840;10.444;2023-04-30T04:35:42;50.33;;;34.28;;
26620;SDS011;14253;44.840;10.444;2023-04-30T04:38:08;50.30;;;35.38;;
26620;SDS011;14253;44.840;10.444;2023-04-30T04:40:34;51.70;;;34.20;;
26620;SDS011;14253;44.840;10.444;2023-04-30T04:43:01;48.88;;;33.65;;
26620;SDS011;14253;44.840;10.444;2023-04-30T04:45:27;52.22;;;36.33;;
26620;SDS011;14253;44.840;10.444;2023-04-30T04:47:54;45.22;;;34.05;;
26620;SDS011;14253;44.840;10.444;2023-04-30T04:50:20;54.90;;;36.65;;
26620;SDS011;14253;44.840;10.444;2023-04-30T04:52:47;48.90;;;35.15;;
26620;SDS011;14253;44.840;10.444;2023-04-30T04:55:12;44.50;;;33.80;;
26620;SDS011;14253;44.840;10.444;2023-04-30T04:57:38;48.80;;;34.67;;
26620;SDS011;14253;44.840;10.444;2023-04-30T05:00:07;46.97;;;33.65;;
26620;SDS011;14253;44.840;10.444;2023-04-30T05:02:34;49.88;;;35.35;;
26620;SDS011;14253;44.840;10.444;2023-04-30T05:05:00;50.58;;;35.88;;
26620;SDS011;14253;44.840;10.444;2023-04-30T05:07:26;50.60;;;35.10;;
26620;SDS011;14253;44.840;10.444;2023-04-30T05:09:53;51.70;;;33.85;;
26620;SDS011;14253;44.840;10.444;2023-04-30T05:12:19;57.33;;;38.42;;
26620;SDS011;14253;44.840;10.444;2023-04-30T05:14:45;69.40;;;40.15;;
26620;SDS011;14253;44.840;10.444;2023-04-30T05:17:11;63.47;;;38.17;;
26620;SDS011;14253;44.840;10.444;2023-04-30T05:19:37;62.80;;;38.13;;
26620;SDS011;14253;44.840;10.444;2023-04-30T05:22:03;64.03;;;36.40;;
26620;SDS011;14253;44.840;10.444;2023-04-30T05:24:29;77.03;;;39.13;;
26620;SDS011;14253;44.840;10.444;2023-04-30T05:26:55;68.60;;;40.25;;
26620;SDS011;14253;44.840;10.444;2023-04-30T05:29:21;66.80;;;37.97;;
26620;SDS011;14253;44.840;10.444;2023-04-30T05:31:47;77.28;;;40.20;;
26620;SDS011;14253;44.840;10.444;2023-04-30T05:34:13;75.32;;;36.28;;
26620;SDS011;14253;44.840;10.444;2023-04-30T05:36:39;61.20;;;37.47;;
26620;SDS011;14253;44.840;10.444;2023-04-30T05:39:05;59.85;;;36.78;;
26620;SDS011;14253;44.840;10.444;2023-04-30T05:41:31;76.20;;;36.53;;
26620;SDS011;14253;44.840;10.444;2023-04-30T05:43:57;61.42;;;34.13;;
26620;SDS011;14253;44.840;10.444;2023-04-30T05:46:23;57.67;;;35.63;;
26620;SDS011;14253;44.840;10.444;2023-04-30T05:48:49;57.33;;;35.50;;
26620;SDS011;14253;44.840;10.444;2023-04-30T05:51:14;76.03;;;35.10;;
26620;SDS011;14253;44.840;10.444;2023-04-30T05:53:40;55.90;;;33.20;;
26620;SDS011;14253;44.840;10.444;2023-04-30T05:56:06;64.10;;;34.30;;
26620;SDS011;14253;44.840;10.444;2023-04-30T05:58:33;60.40;;;33.65;;
26620;SDS011;14253;44.840;10.444;2023-04-30T06:00:59;62.58;;;33.90;;
26620;SDS011;14253;44.840;10.444;2023-04-30T06:03:24;63.55;;;34.17;;
26620;SDS011;14253;44.840;10.444;2023-04-30T06:05:50;64.07;;;33.95;;
26620;SDS011;14253;44.840;10.444;2023-04-30T06:08:18;56.17;;;33.25;;
26620;SDS011;14253;44.840;10.444;2023-04-30T06:10:44;57.25;;;34.78;;
26620;SDS011;14253;44.840;10.444;2023-04-30T06:13:10;66.20;;;36.97;;
26620;SDS011;14253;44.840;10.444;2023-04-30T06:15:36;69.25;;;36.47;;
26620;SDS011;14253;44.840;10.444;2023-04-30T06:18:02;63.20;;;35.10;;
26620;SDS011;14253;44.840;10.444;2023-04-30T06:20:28;62.60;;;35.65;;
26620;SDS011;14253;44.840;10.444;2023-04-30T06:22:54;58.20;;;36.10;;
26620;SDS011;14253;44.840;10.444;2023-04-30T06:25:20;48.85;;;31.77;;
26620;SDS011;14253;44.840;10.444;2023-04-30T06:27:46;54.65;;;33.97;;
26620;SDS011;14253;44.840;10.444;2023-04-30T06:30:12;51.85;;;31.70;;
26620;SDS011;14253;44.840;10.444;2023-04-30T06:32:38;53.15;;;30.83;;
26620;SDS011;14253;44.840;10.444;2023-04-30T06:35:05;45.00;;;29.23;;
26620;SDS011;14253;44.840;10.444;2023-04-30T06:37:31;42.53;;;27.42;;
26620;SDS011;14253;44.840;10.444;2023-04-30T06:40:02;48.28;;;27.77;;
26620;SDS011;14253;44.840;10.444;2023-04-30T06:42:29;40.90;;;27.35;;
26620;SDS011;14253;44.840;10.444;2023-04-30T06:44:59;39.33;;;26.27;;
26620;SDS011;14253;44.840;10.444;2023-04-30T06:47:27;39.85;;;26.25;;
26620;SDS011;14253;44.840;10.444;2023-04-30T06:49:52;41.85;;;26.52;;
26620;SDS011;14253;44.840;10.444;2023-04-30T06:52:18;36.92;;;23.60;;
26620;SDS011;14253;44.840;10.444;2023-04-30T06:54:44;34.88;;;22.60;;
26620;SDS011;14253;44.840;10.444;2023-04-30T06:57:10;37.90;;;24.15;;
26620;SDS011;14253;44.840;10.444;2023-04-30T06:59:36;32.80;;;22.92;;
26620;SDS011;14253;44.840;10.444;2023-04-30T07:02:03;30.73;;;22.60;;
26620;SDS011;14253;44.840;10.444;2023-04-30T07:04:29;33.25;;;23.23;;
26620;SDS011;14253;44.840;10.444;2023-04-30T07:06:56;31.70;;;21.52;;
26620;SDS011;14253;44.840;10.444;2023-04-30T07:09:22;32.40;;;21.65;;
26620;SDS011;14253;44.840;10.444;2023-04-30T07:11:47;31.95;;;22.38;;
26620;SDS011;14253;44.840;10.444;2023-04-30T07:14:14;34.90;;;21.88;;
26620;SDS011;14253;44.840;10.444;2023-04-30T07:16:40;36.55;;;22.25;;
26620;SDS011;14253;44.840;10.444;2023-04-30T07:19:06;34.22;;;21.65;;
26620;SDS011;14253;44.840;10.444;2023-04-30T07:21:32;31.65;;;21.90;;
26620;SDS011;14253;44.840;10.444;2023-04-30T07:23:58;35.65;;;21.70;;
26620;SDS011;14253;44.840;10.444;2023-04-30T07:26:23;32.58;;;20.95;;
26620;SDS011;14253;44.840;10.444;2023-04-30T07:28:50;29.95;;;20.00;;
26620;SDS011;14253;44.840;10.444;2023-04-30T07:31:17;28.50;;;19.85;;
26620;SDS011;14253;44.840;10.444;2023-04-30T07:33:43;31.38;;;19.58;;
26620;SDS011;14253;44.840;10.444;2023-04-30T07:36:09;23.45;;;17.23;;
26620;SDS011;14253;44.840;10.444;2023-04-30T07:38:35;25.02;;;17.42;;
26620;SDS011;14253;44.840;10.444;2023-04-30T07:41:01;28.30;;;15.77;;
26620;SDS011;14253;44.840;10.444;2023-04-30T07:43:28;21.17;;;15.45;;
26620;SDS011;14253;44.840;10.444;2023-04-30T07:45:55;18.13;;;14.80;;
26620;SDS011;14253;44.840;10.444;2023-04-30T07:48:21;24.50;;;14.65;;
26620;SDS011;14253;44.840;10.444;2023-04-30T07:50:47;18.58;;;13.90;;
26620;SDS011;14253;44.840;10.444;2023-04-30T07:53:13;24.50;;;17.02;;
26620;SDS011;14253;44.840;10.444;2023-04-30T07:55:39;23.75;;;16.70;;
26620;SDS011;14253;44.840;10.444;2023-04-30T07:58:05;23.92;;;16.50;;
26620;SDS011;14253;44.840;10.444;2023-04-30T08:00:31;22.67;;;14.43;;
26620;SDS011;14253;44.840;10.444;2023-04-30T08:02:57;18.58;;;14.02;;
26620;SDS011;14253;44.840;10.444;2023-04-30T08:05:25;26.83;;;16.80;;
26620;SDS011;14253;44.840;10.444;2023-04-30T08:07:51;20.33;;;13.82;;
26620;SDS011;14253;44.840;10.444;2023-04-30T08:10:17;16.77;;;12.77;;
26620;SDS011;14253;44.840;10.444;2023-04-30T08:12:43;18.33;;;12.10;;
26620;SDS011;14253;44.840;10.444;2023-04-30T08:15:09;18.02;;;11.95;;
26620;SDS011;14253;44.840;10.444;2023-04-30T08:17:36;16.63;;;11.48;;
26620;SDS011;14253;44.840;10.444;2023-04-30T08:20:03;16.45;;;12.30;;
26620;SDS011;14253;44.840;10.444;2023-04-30T08:22:30;15.45;;;11.23;;
26620;SDS011;14253;44.840;10.444;2023-04-30T08:24:58;15.98;;;10.48;;
26620;SDS011;14253;44.840;10.444;2023-04-30T08:27:33;15.57;;;11.23;;
26620;SDS011;14253;44.840;10.444;2023-04-30T08:30:00;15.60;;;10.43;;
26620;SDS011;14253;44.840;10.444;2023-04-30T08:32:26;14.23;;;9.80;;
26620;SDS011;14253;44.840;10.444;2023-04-30T08:34:53;13.60;;;10.55;;
26620;SDS011;14253;44.840;10.444;2023-04-30T08:37:20;16.38;;;12.07;;
26620;SDS011;14253;44.840;10.444;2023-04-30T08:39:49;17.70;;;11.18;;
26620;SDS011;14253;44.840;10.444;2023-04-30T08:42:15;16.95;;;12.05;;
26620;SDS011;14253;44.840;10.444;2023-04-30T08:44:43;18.27;;;12.43;;
26620;SDS011;14253;44.840;10.444;2023-04-30T08:47:21;19.42;;;13.20;;
26620;SDS011;14253;44.840;10.444;2023-04-30T08:49:50;15.23;;;12.50;;
26620;SDS011;14253;44.840;10.444;2023-04-30T08:52:17;17.25;;;12.98;;
26620;SDS011;14253;44.840;10.444;2023-04-30T08:54:44;15.00;;;12.18;;
26620;SDS011;14253;44.840;10.444;2023-04-30T08:57:11;19.17;;;12.82;;
26620;SDS011;14253;44.840;10.444;2023-04-30T08:59:37;15.07;;;11.13;;
26620;SDS011;14253;44.840;10.444;2023-04-30T09:02:04;15.05;;;10.70;;
26620;SDS011;14253;44.840;10.444;2023-04-30T09:04:32;16.55;;;10.07;;
26620;SDS011;14253;44.840;10.444;2023-04-30T09:06:59;12.60;;;9.35;;
26620;SDS011;14253;44.840;10.444;2023-04-30T09:09:29;13.75;;;9.70;;
26620;SDS011;14253;44.840;10.444;2023-04-30T09:12:14;13.55;;;9.43;;
26620;SDS011;14253;44.840;10.444;2023-04-30T09:14:57;11.48;;;9.02;;
26620;SDS011;14253;44.840;10.444;2023-04-30T09:17:29;10.27;;;8.23;;
26620;SDS011;14253;44.840;10.444;2023-04-30T09:20:12;12.07;;;9.57;;
26620;SDS011;14253;44.840;10.444;2023-04-30T09:22:39;10.98;;;8.35;;
26620;SDS011;14253;44.840;10.444;2023-04-30T09:25:07;11.27;;;7.28;;
26620;SDS011;14253;44.840;10.444;2023-04-30T09:27:34;9.57;;;7.13;;
26620;SDS011;14253;44.840;10.444;2023-04-30T09:30:00;9.70;;;7.35;;
26620;SDS011;14253;44.840;10.444;2023-04-30T09:32:28;12.13;;;7.20;;
26620;SDS011;14253;44.840;10.444;2023-04-30T09:34:58;11.30;;;7.43;;
26620;SDS011;14253;44.840;10.444;2023-04-30T09:37:34;11.07;;;7.15;;
26620;SDS011;14253;44.840;10.444;2023-04-30T09:40:01;9.73;;;6.15;;
26620;SDS011;14253;44.840;10.444;2023-04-30T09:42:28;8.93;;;7.05;;
26620;SDS011;14253;44.840;10.444;2023-04-30T09:44:55;10.77;;;6.80;;
26620;SDS011;14253;44.840;10.444;2023-04-30T09:47:26;9.52;;;6.93;;
26620;SDS011;14253;44.840;10.444;2023-04-30T09:49:55;12.32;;;7.57;;
26620;SDS011;14253;44.840;10.444;2023-04-30T09:52:24;12.30;;;7.28;;
26620;SDS011;14253;44.840;10.444;2023-04-30T09:54:50;10.23;;;7.50;;
26620;SDS011;14253;44.840;10.444;2023-04-30T09:57:16;10.65;;;7.55;;
26620;SDS011;14253;44.840;10.444;2023-04-30T09:59:47;10.77;;;7.13;;
26620;SDS011;14253;44.840;10.444;2023-04-30T10:02:17;9.57;;;7.20;;
26620;SDS011;14253;44.840;10.444;2023-04-30T10:04:44;8.52;;;6.82;;
26620;SDS011;14253;44.840;10.444;2023-04-30T10:07:19;9.30;;;6.03;;
26620;SDS011;14253;44.840;10.444;2023-04-30T10:09:49;8.73;;;6.82;;
26620;SDS011;14253;44.840;10.444;2023-04-30T10:12:26;10.13;;;6.93;;
26620;SDS011;14253;44.840;10.444;2023-04-30T10:15:16;8.00;;;6.45;;
26620;SDS011;14253;44.840;10.444;2023-04-30T10:17:52;10.02;;;6.57;;
26620;SDS011;14253;44.840;10.444;2023-04-30T10:20:23;11.05;;;7.13;;
26620;SDS011;14253;44.840;10.444;2023-04-30T10:22:52;9.43;;;7.40;;
26620;SDS011;14253;44.840;10.444;2023-04-30T10:25:18;9.10;;;6.63;;
26620;SDS011;14253;44.840;10.444;2023-04-30T10:27:47;12.70;;;6.63;;
26620;SDS011;14253;44.840;10.444;2023-04-30T10:30:13;10.27;;;6.13;;
26620;SDS011;14253;44.840;10.444;2023-04-30T10:32:52;9.27;;;5.85;;
26620;SDS011;14253;44.840;10.444;2023-04-30T10:35:25;7.60;;;5.80;;
26620;SDS011;14253;44.840;10.444;2023-04-30T10:38:09;10.18;;;6.32;;
26620;SDS011;14253;44.840;10.444;2023-04-30T10:40:44;10.30;;;6.53;;
26620;SDS011;14253;44.840;10.444;2023-04-30T10:43:22;9.13;;;5.97;;
26620;SDS011;14253;44.840;10.444;2023-04-30T10:45:49;13.18;;;7.00;;
26620;SDS011;14253;44.840;10.444;2023-04-30T10:48:16;10.15;;;6.53;;
26620;SDS011;14253;44.840;10.444;2023-04-30T10:50:54;9.50;;;5.95;;
26620;SDS011;14253;44.840;10.444;2023-04-30T10:53:22;14.02;;;7.60;;
26620;SDS011;14253;44.840;10.444;2023-04-30T10:56:06;10.10;;;6.75;;
26620;SDS011;14253;44.840;10.444;2023-04-30T10:58:39;9.15;;;6.55;;
26620;SDS011;14253;44.840;10.444;2023-04-30T11:01:07;12.50;;;6.90;;
26620;SDS011;14253;44.840;10.444;2023-04-30T11:03:39;12.25;;;6.82;;
26620;SDS011;14253;44.840;10.444;2023-04-30T11:06:09;10.90;;;7.18;;
26620;SDS011;14253;44.840;10.444;2023-04-30T11:08:37;10.55;;;6.88;;
26620;SDS011;14253;44.840;10.444;2023-04-30T11:11:04;10.10;;;6.80;;
26620;SDS011;14253;44.840;10.444;2023-04-30T11:13:59;12.73;;;6.95;;
26620;SDS011;14253;44.840;10.444;2023-04-30T11:16:49;8.70;;;5.63;;
26620;SDS011;14253;44.840;10.444;2023-04-30T11:19:20;10.07;;;5.00;;
26620;SDS011;14253;44.840;10.444;2023-04-30T11:25:12;10.05;;;5.45;;
26620;SDS011;14253;44.840;10.444;2023-04-30T11:28:03;9.07;;;5.07;;
26620;SDS011;14253;44.840;10.444;2023-04-30T11:30:59;8.00;;;4.87;;
26620;SDS011;14253;44.840;10.444;2023-04-30T11:33:39;8.55;;;5.03;;
26620;SDS011;14253;44.840;10.444;2023-04-30T11:36:06;7.85;;;4.97;;
26620;SDS011;14253;44.840;10.444;2023-04-30T11:38:33;8.68;;;5.30;;
26620;SDS011;14253;44.840;10.444;2023-04-30T11:41:02;9.50;;;5.40;;
26620;SDS011;14253;44.840;10.444;2023-04-30T11:43:29;6.57;;;4.90;;
26620;SDS011;14253;44.840;10.444;2023-04-30T11:45:58;8.48;;;5.68;;
26620;SDS011;14253;44.840;10.444;2023-04-30T11:48:43;9.15;;;5.95;;
26620;SDS011;14253;44.840;10.444;2023-04-30T11:53:45;11.05;;;6.32;;
26620;SDS011;14253;44.840;10.444;2023-04-30T11:56:13;8.80;;;6.20;;
26620;SDS011;14253;44.840;10.444;2023-04-30T11:58:46;8.05;;;6.50;;
26620;SDS011;14253;44.840;10.444;2023-04-30T12:01:13;16.98;;;7.45;;
26620;SDS011;14253;44.840;10.444;2023-04-30T12:03:43;12.13;;;7.07;;
26620;SDS011;14253;44.840;10.444;2023-04-30T12:06:11;11.88;;;7.05;;
26620;SDS011;14253;44.840;10.444;2023-04-30T12:08:46;11.38;;;6.50;;
26620;SDS011;14253;44.840;10.444;2023-04-30T12:13:55;11.63;;;6.70;;
26620;SDS011;14253;44.840;10.444;2023-04-30T12:16:50;9.23;;;7.25;;
26620;SDS011;14253;44.840;10.444;2023-04-30T12:19:21;11.55;;;7.05;;
26620;SDS011;14253;44.840;10.444;2023-04-30T12:22:19;13.95;;;6.78;;
26620;SDS011;14253;44.840;10.444;2023-04-30T12:24:45;12.55;;;7.68;;
26620;SDS011;14253;44.840;10.444;2023-04-30T12:27:13;11.55;;;6.70;;
26620;SDS011;14253;44.840;10.444;2023-04-30T12:29:42;15.30;;;7.40;;
26620;SDS011;14253;44.840;10.444;2023-04-30T12:32:12;9.10;;;6.95;;
26620;SDS011;14253;44.840;10.444;2023-04-30T12:34:42;11.52;;;8.43;;
26620;SDS011;14253;44.840;10.444;2023-04-30T12:37:08;13.98;;;7.75;;
26620;SDS011;14253;44.840;10.444;2023-04-30T12:39:35;10.18;;;6.97;;
26620;SDS011;14253;44.840;10.444;2023-04-30T12:42:01;11.15;;;7.32;;
26620;SDS011;14253;44.840;10.444;2023-04-30T12:44:41;11.10;;;6.78;;
26620;SDS011;14253;44.840;10.444;2023-04-30T12:47:16;14.45;;;6.90;;
26620;SDS011;14253;44.840;10.444;2023-04-30T12:52:50;10.75;;;7.57;;
26620;SDS011;14253;44.840;10.444;2023-04-30T12:55:17;10.65;;;7.10;;
26620;SDS011;14253;44.840;10.444;2023-04-30T12:58:18;17.08;;;7.13;;
26620;SDS011;14253;44.840;10.444;2023-04-30T13:03:10;14.32;;;7.35;;
26620;SDS011;14253;44.840;10.444;2023-04-30T13:05:38;13.85;;;7.32;;
26620;SDS011;14253;44.840;10.444;2023-04-30T13:08:11;12.30;;;7.60;;
26620;SDS011;14253;44.840;10.444;2023-04-30T13:10:38;10.82;;;6.97;;
26620;SDS011;14253;44.840;10.444;2023-04-30T13:13:06;11.57;;;7.43;;
26620;SDS011;14253;44.840;10.444;2023-04-30T13:15:32;12.52;;;6.93;;
26620;SDS011;14253;44.840;10.444;2023-04-30T13:18:03;12.45;;;7.72;;
26620;SDS011;14253;44.840;10.444;2023-04-30T13:20:35;9.82;;;6.60;;
26620;SDS011;14253;44.840;10.444;2023-04-30T13:23:01;12.35;;;6.85;;
26620;SDS011;14253;44.840;10.444;2023-04-30T13:25:28;12.13;;;7.53;;
26620;SDS011;14253;44.840;10.444;2023-04-30T13:27:56;9.40;;;7.00;;
26620;SDS011;14253;44.840;10.444;2023-04-30T13:30:22;10.02;;;6.57;;
26620;SDS011;14253;44.840;10.444;2023-04-30T13:32:48;9.10;;;7.28;;
26620;SDS011;14253;44.840;10.444;2023-04-30T13:35:16;11.25;;;7.15;;
26620;SDS011;14253;44.840;10.444;2023-04-30T13:37:41;12.23;;;8.00;;
26620;SDS011;14253;44.840;10.444;2023-04-30T13:40:08;10.60;;;7.38;;
26620;SDS011;14253;44.840;10.444;2023-04-30T13:42:39;14.88;;;8.30;;
26620;SDS011;14253;44.840;10.444;2023-04-30T13:45:08;11.65;;;6.82;;
26620;SDS011;14253;44.840;10.444;2023-04-30T13:47:36;8.63;;;6.28;;
26620;SDS011;14253;44.840;10.444;2023-04-30T13:50:03;13.45;;;7.07;;
26620;SDS011;14253;44.840;10.444;2023-04-30T13:52:31;12.93;;;6.97;;
26620;SDS011;14253;44.840;10.444;2023-04-30T13:54:57;10.30;;;6.47;;
26620;SDS011;14253;44.840;10.444;2023-04-30T13:57:23;8.80;;;6.75;;
26620;SDS011;14253;44.840;10.444;2023-04-30T13:59:49;9.15;;;6.50;;
26620;SDS011;14253;44.840;10.444;2023-04-30T14:02:15;9.77;;;5.88;;
26620;SDS011;14253;44.840;10.444;2023-04-30T14:04:43;7.43;;;5.75;;
26620;SDS011;14253;44.840;10.444;2023-04-30T14:09:41;16.35;;;7.65;;
26620;SDS011;14253;44.840;10.444;2023-04-30T14:12:09;10.45;;;6.57;;
26620;SDS011;14253;44.840;10.444;2023-04-30T14:14:36;10.32;;;7.22;;
26620;SDS011;14253;44.840;10.444;2023-04-30T14:17:03;11.27;;;6.88;;
26620;SDS011;14253;44.840;10.444;2023-04-30T14:19:29;14.30;;;7.55;;
26620;SDS011;14253;44.840;10.444;2023-04-30T14:21:55;12.82;;;6.50;;
26620;SDS011;14253;44.840;10.444;2023-04-30T14:24:22;12.68;;;6.15;;
26620;SDS011;14253;44.840;10.444;2023-04-30T14:26:49;9.20;;;5.38;;
26620;SDS011;14253;44.840;10.444;2023-04-30T14:29:17;14.15;;;6.15;;
26620;SDS011;14253;44.840;10.444;2023-04-30T14:31:45;9.95;;;5.18;;
26620;SDS011;14253;44.840;10.444;2023-04-30T14:34:11;12.60;;;6.97;;
26620;SDS011;14253;44.840;10.444;2023-04-30T14:36:37;9.57;;;5.00;;
26620;SDS011;14253;44.840;10.444;2023-04-30T14:39:03;6.97;;;5.00;;
26620;SDS011;14253;44.840;10.444;2023-04-30T14:41:33;14.57;;;5.85;;
26620;SDS011;14253;44.840;10.444;2023-04-30T14:44:00;7.43;;;4.72;;
26620;SDS011;14253;44.840;10.444;2023-04-30T14:46:27;11.98;;;6.40;;
26620;SDS011;14253;44.840;10.444;2023-04-30T14:48:53;12.07;;;6.53;;
26620;SDS011;14253;44.840;10.444;2023-04-30T14:51:19;8.38;;;4.10;;
26620;SDS011;14253;44.840;10.444;2023-04-30T14:53:45;12.35;;;4.57;;
26620;SDS011;14253;44.840;10.444;2023-04-30T14:56:11;6.43;;;3.88;;
26620;SDS011;14253;44.840;10.444;2023-04-30T14:58:54;11.00;;;4.90;;